• Join FlightAware (Why Join?)
  • Login
  • US Flag 
11:52PM EST


 

Airport Tracker/Info


-or-


 

Live Flight TrackerFlight Track Log ✈ SWA1496 ✈ 27-Apr-2013 ✈ KELP - KDAL

Flight Track Log - Related Links

Times and Time Zones

All times are in EDT time to prevent confusion due to time zone crossing. See the SWA1496 flight status page for this flight to view local times or setup timezone preferences in your user account.

Time Position Orientation Groundspeed Altitude Reporting Facility
EDT Latitude Longitude Course Direction KTS MPH feet Rate Location/Type
08:17PM 31.8006 -106.3583 99° East 152 175 4,600  Level Albuquerque Center
08:18PM 31.7914 -106.2933 99° East 186 214 6,300 1,740 Climbing Albuquerque Center
08:19PM 31.7864 -106.2117 94° East 255 293 8,500 2,580 Climbing Albuquerque Center
08:20PM 31.7872 -106.1133 89° East 302 348 11,600 3,360 Climbing Albuquerque Center
08:21PM 31.7722 -106.0044 99° East 340 391 15,500 3,600 Climbing Albuquerque Center
08:22PM 31.7431 -105.8686 104° East 360 414 19,000 2,340 Climbing Albuquerque Center
08:23PM 31.7153 -105.7411 104° East 403 464 20,300 1,800 Climbing Albuquerque Center
08:24PM 31.6881 -105.6000 103° East 437 503 22,700 2,280 Climbing Albuquerque Center
08:25PM 31.6575 -105.4542 104° East 458 527 25,000 2,100 Climbing Albuquerque Center
08:26PM 31.6447 -105.2975 95° East 481 554 27,000 1,800 Climbing Albuquerque Center
08:27PM 31.6342 -105.1342 94° East 495 570 28,700 1,560 Climbing Albuquerque Center
08:28PM 31.6236 -104.9644 94° East 513 590 30,200 1,860 Climbing Albuquerque Center
08:29PM 31.6122 -104.7917 94° East 525 604 32,500 1,320 Climbing Albuquerque Center
08:30PM 31.6008 -104.6225 94° East 526 605 33,000 1,260 Climbing Albuquerque Center
08:32PM 31.6361 -104.2908 83° East 509 586 36,400 1,320 Climbing Albuquerque Center
08:33PM 31.6664 -104.0908 80° East 516 594 37,100 1,200 Climbing Albuquerque Center
08:34PM 31.6897 -103.9256 81° East 515 593 38,900 1,500 Climbing Albuquerque Center
08:35PM 31.7156 -103.7642 79° East 506 582 40,200 1,020 Climbing Albuquerque Center
08:36PM 31.7372 -103.6092 81° East 499 574 41,000 360 Climbing Albuquerque Center
08:37PM 31.7617 -103.4489 80° East 500 575 41,000  Level Albuquerque Center
08:38PM 31.7831 -103.2908 81° East 501 577 41,000  Level Albuquerque Center
08:39PM 31.8069 -103.1283 80° East 502 578 41,000  Level Albuquerque Center
08:40PM 31.8339 -102.9333 81° East 503 579 41,000  Level Albuquerque Center
08:41PM 31.8575 -102.7706 80° East 503 579 41,000  Level Albuquerque Center
08:42PM 31.8797 -102.6075 81° East 502 578 41,000  Level Albuquerque Center
08:44PM 31.9019 -102.4467 81° East 506 582 41,000  Level Albuquerque Center
08:45PM 31.9244 -102.2819 81° East 512 589 41,000  Level Albuquerque Center
08:46PM 31.9456 -102.1194 81° East 510 587 41,000  Level Albuquerque Center
08:47PM 31.9675 -101.9578 81° East 507 583 41,000  Level Albuquerque Center
08:48PM 31.9933 -101.7831 80° East 499 574 41,000  Level Fort Worth Center
08:49PM 32.0156 -101.6175 81° East 499 574 41,000  Level Fort Worth Center
08:50PM 32.0356 -101.4544 82° East 499 574 41,000  Level Fort Worth Center
08:51PM 32.0594 -101.2936 80° East 499 574 41,000  Level Fort Worth Center
08:52PM 32.0747 -101.1300 84° East 499 574 41,000  Level Fort Worth Center
08:53PM 32.0942 -100.9667 82° East 499 574 41,000  Level Fort Worth Center
08:54PM 32.1178 -100.7883 81° East 499 574 41,000  Level Fort Worth Center
08:55PM 32.1389 -100.6250 81° East 499 574 41,000  Level Fort Worth Center
08:56PM 32.1553 -100.4636 83° East 499 574 41,000  Level Fort Worth Center
08:57PM 32.1758 -100.2997 82° East 499 574 41,000  Level Fort Worth Center
08:58PM 32.1964 -100.1358 82° East 499 574 41,000  Level Fort Worth Center
08:59PM 32.2144 -99.9694 83° East 499 574 41,000  Level Fort Worth Center
09:00PM 32.2344 -99.8056 82° East 499 574 41,000  Level Fort Worth Center
09:01PM 32.2289 -99.6408 92° East 499 574 41,000  Level Fort Worth Center
09:02PM 32.2236 -99.4714 92° East 499 574 41,000  Level Fort Worth Center
09:03PM 32.2178 -99.3042 92° East 504 580 41,000 -360 Level Fort Worth Center
09:04PM 32.2119 -99.1372 92° East 504 580 40,400 -1,560 Descending Fort Worth Center
09:05PM 32.2036 -98.9725 93° East 504 580 37,900 -2,760 Descending Fort Worth Center
09:06PM 32.1972 -98.8078 93° East 499 574 34,900 -3,240 Descending Fort Worth Center
09:07PM 32.1947 -98.6408 91° East 499 574 31,500 -3,360 Descending Fort Worth Center
09:08PM 32.2089 -98.4692 84° East 504 580 28,200 -3,180 Descending Fort Worth Center
09:09PM 32.2206 -98.3244 85° East 504 580 25,200 -3,060 Descending Fort Worth Center
09:10PM 32.2342 -98.1503 85° East 493 567 22,200 -2,700 Descending Fort Worth Center
09:11PM 32.2431 -98.0128 86° East 478 550 19,800 -2,580 Descending Fort Worth Center
09:12PM 32.2542 -97.8506 85° East 455 524 17,000 -2,580 Descending Fort Worth Center
09:13PM 32.2672 -97.7231 83° East 441 507 14,700 -1,980 Descending Fort Worth Center
09:14PM 32.3133 -97.5928 67° East 406 467 13,100 -1,200 Descending Fort Worth Center
09:15PM 32.3489 -97.4969 66° East 364 419 12,300 -1,200 Descending Fort Worth Center
09:16PM 32.3678 -97.3839 79° East 325 374 10,700 -1,500 Descending Fort Worth Center
09:17PM 32.3719 -97.2928 87° East 311 358 9,400 -1,500 Descending Fort Worth Center
09:18PM 32.3758 -97.1847 88° East 306 352 7,800 -1,500 Descending Fort Worth Center
09:19PM 32.3800 -97.0986 87° East 294 338 6,500 -1,380 Descending Fort Worth Center
09:20PM 32.4069 -97.0075 71° East 267 307 5,100 -1,260 Descending Fort Worth Center
09:21PM 32.4442 -96.9408 56° Northeast 262 302 4,000 -600 Descending Fort Worth Center
09:22PM 32.4983 -96.8739 46° Northeast 260 299 4,000  Level Fort Worth Center
09:23PM 32.5669 -96.8464 19° North 251 289 4,000 -180 Level Fort Worth Center
09:24PM 32.6317 -96.8239 16° North 242 278 3,700 -540 Descending Fort Worth Center
09:25PM 32.7000 -96.8000 16° North 205 236 2,900 -720 Descending Dallas / Fort Worth TRACON
09:26PM 32.7500 -96.7833 16° North 188 216 2,300 -480 Descending Dallas / Fort Worth TRACON
09:27PM 32.7833 -96.7833 360° North 150 173 1,900 -480 Descending Dallas / Fort Worth TRACON
09:28PM 32.8167 -96.8000 337° Northwest 130 150 1,400 -660 Descending Dallas / Fort Worth TRACON